Portada
METAR-TAF:

METAR-TAF

Aeroports :

Taylorville Municipal Airport

Taylorville, Illinois, Estats Units d'Amèrica

latitud: 39-32-03N, longitud: 089-19-40W, altitud: 190 m

Observació

L'informe es va fer fa 21 minuts, a les 12:35 UTC
Vent calma
Temperatura 3°C
Humitat 100%
Pressió 1006 hPa
Visibilitat: 11.3 km
Cel cobert a una alçada de 6500 ft

METAR: KTAZ 191235Z AUTO 00000KT 7SM OVC065 03/03 A2972 RMK AO2 T00320026

Hora: 06:56 (12:56 UTC)


TAF: manca

Observacions i pronòstics meteorològics de més de 4000 aeroports (METAR i TAF).

Les estacions disponibles són els punts grocs i vermells al mapa.

Posi el ratolí al punt desitjat per veure el nom de l'estació.

Feu clic per veure les observacions i els pronòstics meteorològics.

Per canviar el mapa: feu clic els botons verds amb una creu de color negre per apropar; al botó verd amb un guió per allunyar la imatge; o en les fletxes verdes per a mapes adjacents.


METAR-TAF: